全部
Bellevue Airport (Bellevue, Western Australia) YBLU 天气
There is no TAF data available at YBLU. Showing TAF data for YLST (17 mi S).
LER终端机场天气预报(YBLU无数据)
| Date | Time (AWST) | Flight Rules | Wind Dir. | Speed | Type | Height AGL (ft) | Visibility | Remarks | ||||||
|---|---|---|---|---|---|---|---|---|---|---|---|---|---|---|
There is no METAR data available at YBLU. Showing METAR data for YLST (17 mi S).
LER近期METAR历史数据(YBLU无数据)
| Date | Time (AWST) | Flight Rules | Wind Dir. | Speed | Type | Height AGL (ft) | Visibility | Temp (°C) | Temp (°F) | Dew Point (°C) | Dew Point (°F) | Rel. Humid. | Pressure | Density Altitude | Remarks |
|---|---|---|---|---|---|---|---|---|---|---|---|---|---|---|---|
| 04-五月 | 01:00 | VFR | 120° | 5 kt | 10000 meters | 11° | 51° | 5° | 41° | 66% | 1024 mb | 1,070 ft | |||
| 04-五月 | 00:00 | VFR | 120° | 5 kt | 10000 meters | 11° | 51° | 5° | 41° | 66% | 1023 mb | 1,099 ft | |||
| 03-五月 | 23:00 | VFR | 70° | 6 kt | 10000 meters | 12° | 53° | 5° | 41° | 62% | 1024 mb | 1,190 ft | |||
| 03-五月 | 22:00 | VFR | 110° | 7 kt | 10000 meters | 13° | 55° | 4° | 39° | 54% | 1024 mb | 1,310 ft | |||
| 03-五月 | 21:00 | VFR | 120° | 6 kt | 10000 meters | 14° | 57° | 4° | 39° | 51% | 1023 mb | 1,459 ft | |||
| 03-五月 | 20:00 | VFR | 130° | 6 kt | 10000 meters | 15° | 59° | 3° | 37° | 44% | 1023 mb | 1,579 ft | |||
| 03-五月 | 19:00 | VFR | 140° | 5 kt | 10000 meters | 16° | 60° | 3° | 37° | 42% | 1022 mb | 1,729 ft | |||
| 03-五月 | 18:00 | VFR | 130° | 7 kt | 10000 meters | 18° | 64° | 2° | 35° | 34% | 1022 mb | 1,969 ft | |||
| 03-五月 | 17:00 | VFR | 160° | 10 kt | 10000 meters | 19° | 66° | 2° | 35° | 32% | 1021 mb | 2,118 ft | |||
| 03-五月 | 16:00 | VFR | 120° | 8 kt | 10000 meters | 19° | 66° | 3° | 37° | 34% | 1021 mb | 2,118 ft | |||
| 03-五月 | 15:00 | VFR | 110° | 8 kt | 10000 meters | 19° | 66° | 2° | 35° | 32% | 1021 mb | 2,118 ft | |||
| 03-五月 | 14:00 | VFR | 110° | 9 kt | 10000 meters | 19° | 66° | 2° | 35° | 32% | 1021 mb | 2,118 ft | |||
| 03-五月 | 13:00 | VFR | 150° | 8 kt | 10000 meters | 18° | 64° | 3° | 37° | 37% | 1022 mb | 1,969 ft | |||
| 03-五月 | 12:00 | VFR | 130° | 8 kt | 10000 meters | 17° | 62° | 3° | 37° | 39% | 1023 mb | 1,819 ft | |||
| 03-五月 | 11:00 | VFR | 120° | 10 kt | 10000 meters | 16° | 60° | 3° | 37° | 42% | 1024 mb | 1,670 ft | |||
| 03-五月 | 10:00 | VFR | 110° | 9 kt | 10000 meters | 15° | 59° | 4° | 39° | 48% | 1024 mb | 1,550 ft | |||
| 03-五月 | 09:00 | VFR | 120° | 9 kt | 10000 meters | 14° | 57° | 4° | 39° | 51% | 1024 mb | 1,430 ft | |||
| 03-五月 | 08:00 | VFR | 120° | 7 kt | 10000 meters | 11° | 51° | 4° | 39° | 62% | 1024 mb | 1,070 ft | |||
| 03-五月 | 07:00 | VFR | 140° | 4 kt | 10000 meters | 8° | 46° | 4° | 39° | 76% | 1023 mb | 739 ft | |||
| 03-五月 | 06:00 | VFR | 150° | 3 kt | 10000 meters | 7° | 44° | 4° | 39° | 81% | 1022 mb | 649 ft | |||
| 03-五月 | 05:00 | VFR | 150° | 4 kt | 10000 meters | 8° | 46° | 5° | 41° | 81% | 1022 mb | 769 ft | |||
| 03-五月 | 04:00 | VFR | 120° | 3 kt | 10000 meters | 9° | 48° | 4° | 39° | 71% | 1022 mb | 889 ft | |||
| 03-五月 | 03:00 | VFR | 140° | 3 kt | 10000 meters | 9° | 48° | 5° | 41° | 76% | 1022 mb | 889 ft | |||
| 03-五月 | 02:00 | VFR | 120° | 4 kt | 10000 meters | 9° | 48° | 4° | 39° | 71% | 1021 mb | 918 ft |
登录
| 您的浏览器不支持. 升级您的浏览器 |
